sensor_id;sensor_type;location;lat;lon;timestamp;temperature;humidity
39849;DHT22;25518;47.878;15.914;2023-07-31T00:00:30;17.00;99.90
39849;DHT22;25518;47.878;15.914;2023-07-31T00:03:20;17.00;99.90
39849;DHT22;25518;47.878;15.914;2023-07-31T00:06:09;16.90;99.90
39849;DHT22;25518;47.878;15.914;2023-07-31T00:08:59;16.80;99.90
39849;DHT22;25518;47.878;15.914;2023-07-31T00:11:48;17.00;99.90
39849;DHT22;25518;47.878;15.914;2023-07-31T00:14:38;17.10;99.90
39849;DHT22;25518;47.878;15.914;2023-07-31T00:17:28;17.00;99.90
39849;DHT22;25518;47.878;15.914;2023-07-31T00:20:18;17.20;99.90
39849;DHT22;25518;47.878;15.914;2023-07-31T00:23:07;17.10;99.90
39849;DHT22;25518;47.878;15.914;2023-07-31T00:25:57;17.00;99.90
39849;DHT22;25518;47.878;15.914;2023-07-31T00:28:46;17.00;99.90
39849;DHT22;25518;47.878;15.914;2023-07-31T00:31:36;16.90;99.90
39849;DHT22;25518;47.878;15.914;2023-07-31T00:34:26;16.90;99.90
39849;DHT22;25518;47.878;15.914;2023-07-31T00:37:16;17.00;99.90
39849;DHT22;25518;47.878;15.914;2023-07-31T00:40:06;17.00;99.90
39849;DHT22;25518;47.878;15.914;2023-07-31T00:42:56;17.10;99.90
39849;DHT22;25518;47.878;15.914;2023-07-31T00:45:46;17.20;99.90
39849;DHT22;25518;47.878;15.914;2023-07-31T00:48:35;16.70;99.90
39849;DHT22;25518;47.878;15.914;2023-07-31T00:51:26;17.20;99.90
39849;DHT22;25518;47.878;15.914;2023-07-31T00:54:16;15.00;99.90
39849;DHT22;25518;47.878;15.914;2023-07-31T00:57:06;17.40;99.90
39849;DHT22;25518;47.878;15.914;2023-07-31T00:59:57;17.30;99.90
39849;DHT22;25518;47.878;15.914;2023-07-31T01:02:49;17.30;99.90
39849;DHT22;25518;47.878;15.914;2023-07-31T01:05:57;17.30;99.90
39849;DHT22;25518;47.878;15.914;2023-07-31T01:12:02;17.50;99.90
39849;DHT22;25518;47.878;15.914;2023-07-31T01:15:06;17.40;99.90
39849;DHT22;25518;47.878;15.914;2023-07-31T01:18:00;17.40;99.90
39849;DHT22;25518;47.878;15.914;2023-07-31T01:20:57;17.40;99.90
39849;DHT22;25518;47.878;15.914;2023-07-31T01:27:08;17.60;99.90
39849;DHT22;25518;47.878;15.914;2023-07-31T01:30:07;17.60;99.90
39849;DHT22;25518;47.878;15.914;2023-07-31T01:33:01;17.70;99.90
39849;DHT22;25518;47.878;15.914;2023-07-31T01:35:56;17.80;99.90
39849;DHT22;25518;47.878;15.914;2023-07-31T01:38:46;17.90;99.90
39849;DHT22;25518;47.878;15.914;2023-07-31T01:41:36;17.90;99.90
39849;DHT22;25518;47.878;15.914;2023-07-31T01:44:25;18.00;99.90
39849;DHT22;25518;47.878;15.914;2023-07-31T01:47:15;18.00;99.90
39849;DHT22;25518;47.878;15.914;2023-07-31T01:50:05;18.00;99.90
39849;DHT22;25518;47.878;15.914;2023-07-31T01:52:55;17.90;99.90
39849;DHT22;25518;47.878;15.914;2023-07-31T01:55:45;18.00;99.90
39849;DHT22;25518;47.878;15.914;2023-07-31T01:58:34;18.10;99.90
39849;DHT22;25518;47.878;15.914;2023-07-31T02:01:24;18.20;99.90
39849;DHT22;25518;47.878;15.914;2023-07-31T02:04:14;18.10;99.90
39849;DHT22;25518;47.878;15.914;2023-07-31T02:07:04;18.20;99.90
39849;DHT22;25518;47.878;15.914;2023-07-31T02:09:56;18.00;99.90
39849;DHT22;25518;47.878;15.914;2023-07-31T02:12:45;18.20;99.90
39849;DHT22;25518;47.878;15.914;2023-07-31T02:15:35;18.20;99.90
39849;DHT22;25518;47.878;15.914;2023-07-31T02:18:24;18.10;99.90
39849;DHT22;25518;47.878;15.914;2023-07-31T02:21:14;18.10;99.90
39849;DHT22;25518;47.878;15.914;2023-07-31T02:24:04;18.00;99.90
39849;DHT22;25518;47.878;15.914;2023-07-31T02:26:53;17.90;99.90
39849;DHT22;25518;47.878;15.914;2023-07-31T02:29:43;17.90;99.90
39849;DHT22;25518;47.878;15.914;2023-07-31T02:32:33;17.80;99.90
39849;DHT22;25518;47.878;15.914;2023-07-31T02:35:23;17.70;99.90
39849;DHT22;25518;47.878;15.914;2023-07-31T02:38:12;17.80;99.90
39849;DHT22;25518;47.878;15.914;2023-07-31T02:41:02;17.70;99.90
39849;DHT22;25518;47.878;15.914;2023-07-31T02:43:52;17.70;99.90
39849;DHT22;25518;47.878;15.914;2023-07-31T02:46:41;17.70;99.90
39849;DHT22;25518;47.878;15.914;2023-07-31T02:49:31;17.70;99.90
39849;DHT22;25518;47.878;15.914;2023-07-31T02:52:20;17.70;99.90
39849;DHT22;25518;47.878;15.914;2023-07-31T02:55:10;17.70;99.90
39849;DHT22;25518;47.878;15.914;2023-07-31T02:58:00;17.70;99.90
39849;DHT22;25518;47.878;15.914;2023-07-31T03:00:50;17.70;99.90
39849;DHT22;25518;47.878;15.914;2023-07-31T03:17:45;17.70;99.90
39849;DHT22;25518;47.878;15.914;2023-07-31T03:20:42;17.60;99.90
39849;DHT22;25518;47.878;15.914;2023-07-31T03:23:33;17.60;99.90
39849;DHT22;25518;47.878;15.914;2023-07-31T03:26:23;17.60;99.90
39849;DHT22;25518;47.878;15.914;2023-07-31T03:29:12;17.60;99.90
39849;DHT22;25518;47.878;15.914;2023-07-31T03:32:02;17.40;99.90
39849;DHT22;25518;47.878;15.914;2023-07-31T03:34:52;17.50;99.90
39849;DHT22;25518;47.878;15.914;2023-07-31T03:37:42;16.50;99.90
39849;DHT22;25518;47.878;15.914;2023-07-31T03:40:31;17.50;99.90
39849;DHT22;25518;47.878;15.914;2023-07-31T03:43:21;16.10;99.90
39849;DHT22;25518;47.878;15.914;2023-07-31T03:46:10;17.40;99.90
39849;DHT22;25518;47.878;15.914;2023-07-31T03:49:00;17.50;99.90
39849;DHT22;25518;47.878;15.914;2023-07-31T03:51:50;17.40;99.90
39849;DHT22;25518;47.878;15.914;2023-07-31T03:54:39;17.50;99.90
39849;DHT22;25518;47.878;15.914;2023-07-31T03:57:29;17.50;99.90
39849;DHT22;25518;47.878;15.914;2023-07-31T04:00:19;17.50;99.90
39849;DHT22;25518;47.878;15.914;2023-07-31T04:03:08;16.40;99.90
39849;DHT22;25518;47.878;15.914;2023-07-31T04:05:58;17.50;99.90
39849;DHT22;25518;47.878;15.914;2023-07-31T04:08:47;17.50;99.90
39849;DHT22;25518;47.878;15.914;2023-07-31T04:11:37;17.50;99.90
39849;DHT22;25518;47.878;15.914;2023-07-31T04:14:28;17.40;99.90
39849;DHT22;25518;47.878;15.914;2023-07-31T04:17:18;17.50;99.90
39849;DHT22;25518;47.878;15.914;2023-07-31T04:20:08;17.50;99.90
39849;DHT22;25518;47.878;15.914;2023-07-31T04:22:58;17.50;99.90
39849;DHT22;25518;47.878;15.914;2023-07-31T04:25:47;17.60;99.90
39849;DHT22;25518;47.878;15.914;2023-07-31T04:28:37;17.60;99.90
39849;DHT22;25518;47.878;15.914;2023-07-31T04:31:26;17.70;99.90
39849;DHT22;25518;47.878;15.914;2023-07-31T04:34:16;17.70;99.90
39849;DHT22;25518;47.878;15.914;2023-07-31T04:37:06;17.60;99.90
39849;DHT22;25518;47.878;15.914;2023-07-31T04:39:56;17.70;99.90
39849;DHT22;25518;47.878;15.914;2023-07-31T04:42:46;17.60;99.90
39849;DHT22;25518;47.878;15.914;2023-07-31T04:45:35;17.60;99.90
39849;DHT22;25518;47.878;15.914;2023-07-31T04:48:25;17.80;99.90
39849;DHT22;25518;47.878;15.914;2023-07-31T04:51:15;17.80;99.90
39849;DHT22;25518;47.878;15.914;2023-07-31T04:54:04;17.70;99.90
39849;DHT22;25518;47.878;15.914;2023-07-31T04:56:54;17.80;99.90
39849;DHT22;25518;47.878;15.914;2023-07-31T04:59:44;17.80;99.90
39849;DHT22;25518;47.878;15.914;2023-07-31T05:02:34;17.90;99.90
39849;DHT22;25518;47.878;15.914;2023-07-31T05:05:23;18.00;99.90
39849;DHT22;25518;47.878;15.914;2023-07-31T05:08:13;18.00;99.90
39849;DHT22;25518;47.878;15.914;2023-07-31T05:11:03;14.80;99.90
39849;DHT22;25518;47.878;15.914;2023-07-31T05:13:53;18.10;99.90
39849;DHT22;25518;47.878;15.914;2023-07-31T05:16:42;18.10;99.90
39849;DHT22;25518;47.878;15.914;2023-07-31T05:19:32;18.00;99.90
39849;DHT22;25518;47.878;15.914;2023-07-31T05:22:21;18.00;99.90
39849;DHT22;25518;47.878;15.914;2023-07-31T05:25:11;18.10;99.90
39849;DHT22;25518;47.878;15.914;2023-07-31T05:28:00;18.10;99.90
39849;DHT22;25518;47.878;15.914;2023-07-31T05:30:50;18.10;99.90
39849;DHT22;25518;47.878;15.914;2023-07-31T05:33:40;18.10;99.90
39849;DHT22;25518;47.878;15.914;2023-07-31T05:36:29;17.50;99.90
39849;DHT22;25518;47.878;15.914;2023-07-31T05:39:19;18.20;99.90
39849;DHT22;25518;47.878;15.914;2023-07-31T05:42:09;18.20;99.90
39849;DHT22;25518;47.878;15.914;2023-07-31T05:44:58;18.30;99.90
39849;DHT22;25518;47.878;15.914;2023-07-31T05:47:48;18.30;99.90
39849;DHT22;25518;47.878;15.914;2023-07-31T05:50:37;18.40;99.90
39849;DHT22;25518;47.878;15.914;2023-07-31T05:53:29;18.40;99.90
39849;DHT22;25518;47.878;15.914;2023-07-31T05:56:18;18.50;99.90
39849;DHT22;25518;47.878;15.914;2023-07-31T05:59:11;18.70;99.90
39849;DHT22;25518;47.878;15.914;2023-07-31T06:02:01;18.80;99.90
39849;DHT22;25518;47.878;15.914;2023-07-31T06:04:51;18.70;99.90
39849;DHT22;25518;47.878;15.914;2023-07-31T06:07:41;18.60;99.90
39849;DHT22;25518;47.878;15.914;2023-07-31T06:10:30;18.60;99.90
39849;DHT22;25518;47.878;15.914;2023-07-31T06:13:20;18.70;99.90
39849;DHT22;25518;47.878;15.914;2023-07-31T06:16:09;18.60;99.90
39849;DHT22;25518;47.878;15.914;2023-07-31T06:18:59;18.70;99.90
39849;DHT22;25518;47.878;15.914;2023-07-31T06:21:49;18.60;99.90
39849;DHT22;25518;47.878;15.914;2023-07-31T06:24:39;18.50;99.90
39849;DHT22;25518;47.878;15.914;2023-07-31T06:27:28;18.60;99.90
39849;DHT22;25518;47.878;15.914;2023-07-31T06:30:18;18.60;99.90
39849;DHT22;25518;47.878;15.914;2023-07-31T06:33:08;18.70;99.90
39849;DHT22;25518;47.878;15.914;2023-07-31T06:35:58;18.70;99.90
39849;DHT22;25518;47.878;15.914;2023-07-31T06:38:48;18.50;99.90
39849;DHT22;25518;47.878;15.914;2023-07-31T06:41:38;18.50;99.90
39849;DHT22;25518;47.878;15.914;2023-07-31T06:44:28;18.60;99.90
39849;DHT22;25518;47.878;15.914;2023-07-31T06:47:17;18.70;99.90
39849;DHT22;25518;47.878;15.914;2023-07-31T06:50:08;18.80;99.90
39849;DHT22;25518;47.878;15.914;2023-07-31T06:52:58;19.00;99.90
39849;DHT22;25518;47.878;15.914;2023-07-31T06:55:47;19.10;99.90
39849;DHT22;25518;47.878;15.914;2023-07-31T06:58:37;19.10;99.90
39849;DHT22;25518;47.878;15.914;2023-07-31T07:01:27;19.30;99.90
39849;DHT22;25518;47.878;15.914;2023-07-31T07:04:18;19.50;99.90
39849;DHT22;25518;47.878;15.914;2023-07-31T07:07:07;17.90;99.90
39849;DHT22;25518;47.878;15.914;2023-07-31T07:09:57;19.40;99.90
39849;DHT22;25518;47.878;15.914;2023-07-31T07:12:49;19.30;99.90
39849;DHT22;25518;47.878;15.914;2023-07-31T07:15:39;19.30;99.90
39849;DHT22;25518;47.878;15.914;2023-07-31T07:18:29;19.40;99.90
39849;DHT22;25518;47.878;15.914;2023-07-31T07:21:19;19.70;99.90
39849;DHT22;25518;47.878;15.914;2023-07-31T07:24:08;19.70;99.90
39849;DHT22;25518;47.878;15.914;2023-07-31T07:26:58;19.60;99.90
39849;DHT22;25518;47.878;15.914;2023-07-31T07:29:51;19.60;99.90
39849;DHT22;25518;47.878;15.914;2023-07-31T07:32:42;19.70;99.90
39849;DHT22;25518;47.878;15.914;2023-07-31T07:35:34;19.80;99.90
39849;DHT22;25518;47.878;15.914;2023-07-31T07:38:24;20.10;99.90
39849;DHT22;25518;47.878;15.914;2023-07-31T07:41:14;19.80;99.90
39849;DHT22;25518;47.878;15.914;2023-07-31T07:44:04;19.70;99.90
39849;DHT22;25518;47.878;15.914;2023-07-31T07:46:53;19.80;99.90
39849;DHT22;25518;47.878;15.914;2023-07-31T07:49:43;19.60;99.90
39849;DHT22;25518;47.878;15.914;2023-07-31T07:52:32;17.60;99.90
39849;DHT22;25518;47.878;15.914;2023-07-31T07:55:22;19.20;99.90
39849;DHT22;25518;47.878;15.914;2023-07-31T07:58:12;19.40;99.90
39849;DHT22;25518;47.878;15.914;2023-07-31T08:01:01;19.60;99.90
39849;DHT22;25518;47.878;15.914;2023-07-31T08:03:51;19.60;99.90
39849;DHT22;25518;47.878;15.914;2023-07-31T08:06:41;19.60;99.90
39849;DHT22;25518;47.878;15.914;2023-07-31T08:09:31;20.00;99.90
39849;DHT22;25518;47.878;15.914;2023-07-31T08:12:20;20.10;99.90
39849;DHT22;25518;47.878;15.914;2023-07-31T08:15:10;20.00;99.90
39849;DHT22;25518;47.878;15.914;2023-07-31T08:17:59;20.00;99.90
39849;DHT22;25518;47.878;15.914;2023-07-31T08:20:49;18.50;99.90
39849;DHT22;25518;47.878;15.914;2023-07-31T08:23:39;20.10;99.90
39849;DHT22;25518;47.878;15.914;2023-07-31T08:26:28;20.30;99.90
39849;DHT22;25518;47.878;15.914;2023-07-31T08:29:18;20.40;99.90
39849;DHT22;25518;47.878;15.914;2023-07-31T08:32:07;20.50;99.90
39849;DHT22;25518;47.878;15.914;2023-07-31T08:34:57;19.70;99.90
39849;DHT22;25518;47.878;15.914;2023-07-31T08:37:47;20.80;99.90
39849;DHT22;25518;47.878;15.914;2023-07-31T08:40:37;20.80;99.90
39849;DHT22;25518;47.878;15.914;2023-07-31T08:43:27;20.70;99.90
39849;DHT22;25518;47.878;15.914;2023-07-31T08:46:18;20.80;99.90
39849;DHT22;25518;47.878;15.914;2023-07-31T08:49:09;20.80;99.90
39849;DHT22;25518;47.878;15.914;2023-07-31T08:52:00;20.60;99.90
39849;DHT22;25518;47.878;15.914;2023-07-31T08:54:49;21.30;99.90
39849;DHT22;25518;47.878;15.914;2023-07-31T08:57:39;21.10;99.90
39849;DHT22;25518;47.878;15.914;2023-07-31T09:00:32;21.30;99.90
39849;DHT22;25518;47.878;15.914;2023-07-31T09:03:23;21.40;99.90
39849;DHT22;25518;47.878;15.914;2023-07-31T09:06:16;21.70;99.90
39849;DHT22;25518;47.878;15.914;2023-07-31T09:09:06;21.80;99.90
39849;DHT22;25518;47.878;15.914;2023-07-31T09:11:57;21.90;99.90
39849;DHT22;25518;47.878;15.914;2023-07-31T09:14:48;22.10;99.90
39849;DHT22;25518;47.878;15.914;2023-07-31T09:17:38;22.00;99.90
39849;DHT22;25518;47.878;15.914;2023-07-31T09:20:27;22.20;99.90
39849;DHT22;25518;47.878;15.914;2023-07-31T09:23:17;22.40;99.90
39849;DHT22;25518;47.878;15.914;2023-07-31T09:26:06;22.50;99.90
39849;DHT22;25518;47.878;15.914;2023-07-31T09:28:57;22.70;99.90
39849;DHT22;25518;47.878;15.914;2023-07-31T09:31:46;22.90;99.90
39849;DHT22;25518;47.878;15.914;2023-07-31T09:34:38;22.90;99.70
39849;DHT22;25518;47.878;15.914;2023-07-31T09:37:29;22.90;99.90
39849;DHT22;25518;47.878;15.914;2023-07-31T09:40:36;23.10;99.90
39849;DHT22;25518;47.878;15.914;2023-07-31T09:43:26;22.80;99.90
39849;DHT22;25518;47.878;15.914;2023-07-31T09:46:20;22.70;98.50
39849;DHT22;25518;47.878;15.914;2023-07-31T09:49:12;22.60;99.70
39849;DHT22;25518;47.878;15.914;2023-07-31T09:52:11;22.80;98.30
39849;DHT22;25518;47.878;15.914;2023-07-31T09:55:01;21.90;98.60
39849;DHT22;25518;47.878;15.914;2023-07-31T09:57:52;23.00;98.20
39849;DHT22;25518;47.878;15.914;2023-07-31T10:00:43;23.20;97.40
39849;DHT22;25518;47.878;15.914;2023-07-31T10:03:34;23.20;97.90
39849;DHT22;25518;47.878;15.914;2023-07-31T10:06:25;23.30;97.80
39849;DHT22;25518;47.878;15.914;2023-07-31T10:09:16;23.10;96.80
39849;DHT22;25518;47.878;15.914;2023-07-31T10:12:10;23.20;97.70
39849;DHT22;25518;47.878;15.914;2023-07-31T10:15:02;23.60;97.30
39849;DHT22;25518;47.878;15.914;2023-07-31T10:17:54;22.10;95.90
39849;DHT22;25518;47.878;15.914;2023-07-31T10:20:46;24.00;96.40
39849;DHT22;25518;47.878;15.914;2023-07-31T10:23:36;24.00;96.50
39849;DHT22;25518;47.878;15.914;2023-07-31T10:26:26;24.30;95.70
39849;DHT22;25518;47.878;15.914;2023-07-31T10:29:17;24.20;95.80
39849;DHT22;25518;47.878;15.914;2023-07-31T10:32:08;24.40;96.00
39849;DHT22;25518;47.878;15.914;2023-07-31T10:35:02;24.30;95.40
39849;DHT22;25518;47.878;15.914;2023-07-31T10:37:53;24.00;95.70
39849;DHT22;25518;47.878;15.914;2023-07-31T10:40:43;23.90;96.20
39849;DHT22;25518;47.878;15.914;2023-07-31T10:43:34;24.10;97.20
39849;DHT22;25518;47.878;15.914;2023-07-31T10:46:23;24.40;96.20
39849;DHT22;25518;47.878;15.914;2023-07-31T10:49:21;24.70;95.00
39849;DHT22;25518;47.878;15.914;2023-07-31T10:52:13;24.80;95.90
39849;DHT22;25518;47.878;15.914;2023-07-31T10:55:25;25.00;96.20
39849;DHT22;25518;47.878;15.914;2023-07-31T10:58:19;24.80;95.20
39849;DHT22;25518;47.878;15.914;2023-07-31T11:01:09;24.80;95.80
39849;DHT22;25518;47.878;15.914;2023-07-31T11:03:59;24.80;97.30
39849;DHT22;25518;47.878;15.914;2023-07-31T11:07:00;24.70;95.30
39849;DHT22;25518;47.878;15.914;2023-07-31T11:09:49;24.80;94.20
39849;DHT22;25518;47.878;15.914;2023-07-31T11:12:40;24.90;95.00
39849;DHT22;25518;47.878;15.914;2023-07-31T11:15:29;24.90;94.90
39849;DHT22;25518;47.878;15.914;2023-07-31T11:18:19;24.80;94.80
39849;DHT22;25518;47.878;15.914;2023-07-31T11:21:13;24.70;94.80
39849;DHT22;25518;47.878;15.914;2023-07-31T11:24:03;24.70;94.70
39849;DHT22;25518;47.878;15.914;2023-07-31T11:26:53;24.60;96.00
39849;DHT22;25518;47.878;15.914;2023-07-31T11:29:43;24.70;96.10
39849;DHT22;25518;47.878;15.914;2023-07-31T11:32:33;24.70;95.60
39849;DHT22;25518;47.878;15.914;2023-07-31T11:35:22;24.60;95.00
39849;DHT22;25518;47.878;15.914;2023-07-31T11:38:21;24.60;95.00
39849;DHT22;25518;47.878;15.914;2023-07-31T11:41:15;24.60;95.00
39849;DHT22;25518;47.878;15.914;2023-07-31T11:44:05;24.80;96.10
39849;DHT22;25518;47.878;15.914;2023-07-31T11:47:01;24.90;94.90
39849;DHT22;25518;47.878;15.914;2023-07-31T11:49:50;25.20;94.90
39849;DHT22;25518;47.878;15.914;2023-07-31T11:52:43;25.10;93.90
39849;DHT22;25518;47.878;15.914;2023-07-31T11:55:33;25.10;93.60
39849;DHT22;25518;47.878;15.914;2023-07-31T11:58:23;25.60;93.90
39849;DHT22;25518;47.878;15.914;2023-07-31T12:01:17;25.60;92.70
39849;DHT22;25518;47.878;15.914;2023-07-31T12:04:07;25.50;92.40
39849;DHT22;25518;47.878;15.914;2023-07-31T12:06:56;25.50;93.00
39849;DHT22;25518;47.878;15.914;2023-07-31T12:09:56;25.20;93.40
39849;DHT22;25518;47.878;15.914;2023-07-31T12:12:57;25.40;93.80
39849;DHT22;25518;47.878;15.914;2023-07-31T12:15:48;25.50;93.70
39849;DHT22;25518;47.878;15.914;2023-07-31T12:18:38;25.60;92.60
39849;DHT22;25518;47.878;15.914;2023-07-31T12:21:29;25.70;92.50
39849;DHT22;25518;47.878;15.914;2023-07-31T12:24:19;26.00;92.20
39849;DHT22;25518;47.878;15.914;2023-07-31T12:27:11;26.20;93.90
39849;DHT22;25518;47.878;15.914;2023-07-31T12:30:01;26.10;93.20
39849;DHT22;25518;47.878;15.914;2023-07-31T12:32:51;25.80;91.30
39849;DHT22;25518;47.878;15.914;2023-07-31T12:35:43;26.10;91.60
39849;DHT22;25518;47.878;15.914;2023-07-31T12:38:33;26.00;91.30
39849;DHT22;25518;47.878;15.914;2023-07-31T12:41:23;26.10;92.20
39849;DHT22;25518;47.878;15.914;2023-07-31T12:44:13;26.00;92.80
39849;DHT22;25518;47.878;15.914;2023-07-31T12:47:02;26.30;91.70
39849;DHT22;25518;47.878;15.914;2023-07-31T12:49:53;26.00;90.30
39849;DHT22;25518;47.878;15.914;2023-07-31T12:52:43;26.00;89.80
39849;DHT22;25518;47.878;15.914;2023-07-31T12:55:33;25.50;90.70
39849;DHT22;25518;47.878;15.914;2023-07-31T12:58:23;26.80;92.10
39849;DHT22;25518;47.878;15.914;2023-07-31T13:01:13;26.60;87.60
39849;DHT22;25518;47.878;15.914;2023-07-31T13:04:03;26.50;89.80
39849;DHT22;25518;47.878;15.914;2023-07-31T13:06:52;26.50;87.70
39849;DHT22;25518;47.878;15.914;2023-07-31T13:09:42;26.40;89.70
39849;DHT22;25518;47.878;15.914;2023-07-31T13:12:31;26.60;89.30
39849;DHT22;25518;47.878;15.914;2023-07-31T13:15:21;26.90;89.00
39849;DHT22;25518;47.878;15.914;2023-07-31T13:18:10;26.90;89.40
39849;DHT22;25518;47.878;15.914;2023-07-31T13:21:00;26.60;88.80
39849;DHT22;25518;47.878;15.914;2023-07-31T13:23:50;26.50;89.80
39849;DHT22;25518;47.878;15.914;2023-07-31T13:26:39;26.40;88.50
39849;DHT22;25518;47.878;15.914;2023-07-31T13:29:29;26.30;86.70
39849;DHT22;25518;47.878;15.914;2023-07-31T13:32:20;26.50;89.00
39849;DHT22;25518;47.878;15.914;2023-07-31T13:35:10;26.60;87.60
39849;DHT22;25518;47.878;15.914;2023-07-31T13:38:01;26.50;88.50
39849;DHT22;25518;47.878;15.914;2023-07-31T13:40:50;26.50;87.30
39849;DHT22;25518;47.878;15.914;2023-07-31T13:43:40;26.40;87.10
39849;DHT22;25518;47.878;15.914;2023-07-31T13:46:30;26.30;86.80
39849;DHT22;25518;47.878;15.914;2023-07-31T13:49:19;26.30;88.20
39849;DHT22;25518;47.878;15.914;2023-07-31T13:52:09;26.60;87.30
39849;DHT22;25518;47.878;15.914;2023-07-31T13:54:59;26.60;86.60
39849;DHT22;25518;47.878;15.914;2023-07-31T13:57:48;26.50;83.90
39849;DHT22;25518;47.878;15.914;2023-07-31T14:00:38;26.40;85.30
39849;DHT22;25518;47.878;15.914;2023-07-31T14:03:28;26.00;87.20
39849;DHT22;25518;47.878;15.914;2023-07-31T14:06:19;26.10;87.60
39849;DHT22;25518;47.878;15.914;2023-07-31T14:09:09;26.10;86.30
39849;DHT22;25518;47.878;15.914;2023-07-31T14:11:58;26.10;86.80
39849;DHT22;25518;47.878;15.914;2023-07-31T14:14:48;26.20;85.90
39849;DHT22;25518;47.878;15.914;2023-07-31T14:17:38;26.20;87.10
39849;DHT22;25518;47.878;15.914;2023-07-31T14:20:28;24.80;91.10
39849;DHT22;25518;47.878;15.914;2023-07-31T14:23:17;26.40;87.20
39849;DHT22;25518;47.878;15.914;2023-07-31T14:26:09;26.50;83.60
39849;DHT22;25518;47.878;15.914;2023-07-31T14:28:58;26.30;84.80
39849;DHT22;25518;47.878;15.914;2023-07-31T14:31:48;26.20;84.00
39849;DHT22;25518;47.878;15.914;2023-07-31T14:34:37;26.40;85.40
39849;DHT22;25518;47.878;15.914;2023-07-31T14:37:38;26.60;84.80
39849;DHT22;25518;47.878;15.914;2023-07-31T14:40:28;26.80;84.60
39849;DHT22;25518;47.878;15.914;2023-07-31T14:43:18;26.80;83.10
39849;DHT22;25518;47.878;15.914;2023-07-31T14:46:07;26.60;81.50
39849;DHT22;25518;47.878;15.914;2023-07-31T14:48:57;26.70;84.80
39849;DHT22;25518;47.878;15.914;2023-07-31T14:51:46;26.80;83.70
39849;DHT22;25518;47.878;15.914;2023-07-31T14:54:36;27.10;84.30
39849;DHT22;25518;47.878;15.914;2023-07-31T14:57:25;27.20;86.40
39849;DHT22;25518;47.878;15.914;2023-07-31T15:00:15;26.80;87.40
39849;DHT22;25518;47.878;15.914;2023-07-31T15:03:05;26.50;91.00
39849;DHT22;25518;47.878;15.914;2023-07-31T15:05:54;26.50;91.80
39849;DHT22;25518;47.878;15.914;2023-07-31T15:08:44;26.60;91.20
39849;DHT22;25518;47.878;15.914;2023-07-31T15:11:33;26.50;92.00
39849;DHT22;25518;47.878;15.914;2023-07-31T15:14:24;26.50;92.10
39849;DHT22;25518;47.878;15.914;2023-07-31T15:17:15;26.60;92.50
39849;DHT22;25518;47.878;15.914;2023-07-31T15:20:05;26.60;92.10
39849;DHT22;25518;47.878;15.914;2023-07-31T15:22:55;27.00;91.40
39849;DHT22;25518;47.878;15.914;2023-07-31T15:25:45;26.90;90.30
39849;DHT22;25518;47.878;15.914;2023-07-31T15:28:35;26.80;90.10
39849;DHT22;25518;47.878;15.914;2023-07-31T15:31:26;26.80;90.10
39849;DHT22;25518;47.878;15.914;2023-07-31T15:34:16;26.60;91.00
39849;DHT22;25518;47.878;15.914;2023-07-31T15:37:06;26.30;92.60
39849;DHT22;25518;47.878;15.914;2023-07-31T15:39:56;26.30;93.40
39849;DHT22;25518;47.878;15.914;2023-07-31T15:42:45;26.10;93.00
39849;DHT22;25518;47.878;15.914;2023-07-31T15:45:35;25.90;93.10
39849;DHT22;25518;47.878;15.914;2023-07-31T15:48:25;25.90;93.30
39849;DHT22;25518;47.878;15.914;2023-07-31T15:51:15;25.90;93.50
39849;DHT22;25518;47.878;15.914;2023-07-31T15:54:05;25.90;94.90
39849;DHT22;25518;47.878;15.914;2023-07-31T15:56:54;26.00;94.00
39849;DHT22;25518;47.878;15.914;2023-07-31T15:59:44;25.90;93.80
39849;DHT22;25518;47.878;15.914;2023-07-31T16:02:34;25.90;94.20
39849;DHT22;25518;47.878;15.914;2023-07-31T16:05:24;26.20;94.30
39849;DHT22;25518;47.878;15.914;2023-07-31T16:08:14;26.00;95.10
39849;DHT22;25518;47.878;15.914;2023-07-31T16:11:04;25.80;95.00
39849;DHT22;25518;47.878;15.914;2023-07-31T16:13:53;25.60;96.20
39849;DHT22;25518;47.878;15.914;2023-07-31T16:16:43;25.40;96.70
39849;DHT22;25518;47.878;15.914;2023-07-31T16:19:33;25.10;96.00
39849;DHT22;25518;47.878;15.914;2023-07-31T16:22:23;25.00;96.60
39849;DHT22;25518;47.878;15.914;2023-07-31T16:25:12;25.10;96.90
39849;DHT22;25518;47.878;15.914;2023-07-31T16:28:02;25.10;97.40
39849;DHT22;25518;47.878;15.914;2023-07-31T16:30:52;25.10;98.00
39849;DHT22;25518;47.878;15.914;2023-07-31T16:33:41;25.10;98.10
39849;DHT22;25518;47.878;15.914;2023-07-31T16:36:30;25.40;97.60
39849;DHT22;25518;47.878;15.914;2023-07-31T16:39:20;25.60;97.70
39849;DHT22;25518;47.878;15.914;2023-07-31T16:42:10;25.40;98.00
39849;DHT22;25518;47.878;15.914;2023-07-31T16:45:00;25.30;98.40
39849;DHT22;25518;47.878;15.914;2023-07-31T16:47:50;25.30;98.30
39849;DHT22;25518;47.878;15.914;2023-07-31T16:50:39;25.10;98.10
39849;DHT22;25518;47.878;15.914;2023-07-31T16:53:29;25.00;98.50
39849;DHT22;25518;47.878;15.914;2023-07-31T16:56:19;25.00;98.50
39849;DHT22;25518;47.878;15.914;2023-07-31T16:59:08;25.00;98.90
39849;DHT22;25518;47.878;15.914;2023-07-31T17:01:58;25.10;98.50
39849;DHT22;25518;47.878;15.914;2023-07-31T17:04:48;25.10;99.20
39849;DHT22;25518;47.878;15.914;2023-07-31T17:07:37;25.00;99.50
39849;DHT22;25518;47.878;15.914;2023-07-31T17:10:27;24.90;99.60
39849;DHT22;25518;47.878;15.914;2023-07-31T17:13:17;24.90;99.60
39849;DHT22;25518;47.878;15.914;2023-07-31T17:16:06;24.90;99.80
39849;DHT22;25518;47.878;15.914;2023-07-31T17:18:56;24.80;99.90
39849;DHT22;25518;47.878;15.914;2023-07-31T17:21:45;24.60;99.90
39849;DHT22;25518;47.878;15.914;2023-07-31T17:24:35;24.50;99.90
39849;DHT22;25518;47.878;15.914;2023-07-31T17:27:25;24.40;99.90
39849;DHT22;25518;47.878;15.914;2023-07-31T17:30:16;24.20;99.90
39849;DHT22;25518;47.878;15.914;2023-07-31T17:33:06;24.00;99.90
39849;DHT22;25518;47.878;15.914;2023-07-31T17:35:56;23.60;99.90
39849;DHT22;25518;47.878;15.914;2023-07-31T17:38:46;23.60;99.90
39849;DHT22;25518;47.878;15.914;2023-07-31T17:41:36;23.40;99.90
39849;DHT22;25518;47.878;15.914;2023-07-31T17:44:26;23.40;99.90
39849;DHT22;25518;47.878;15.914;2023-07-31T17:47:15;23.30;99.90
39849;DHT22;25518;47.878;15.914;2023-07-31T17:50:05;22.90;99.90
39849;DHT22;25518;47.878;15.914;2023-07-31T17:52:55;22.80;99.90
39849;DHT22;25518;47.878;15.914;2023-07-31T17:55:45;22.50;99.90
39849;DHT22;25518;47.878;15.914;2023-07-31T17:58:34;22.50;99.90